Time;durP1;ratioP1;P1;durP2;ratioP2;P2;SDS_P1;SDS_P2;PMS_P1;PMS_P2;Temp;Humidity;BMP_temperature;BMP_pressure;BME280_temperature;BME280_humidity;BME280_pressure;Samples;Min_cycle;Max_cycle;Signal;HPM_P1;HPM_P2
2022/11/06 00:00:28;;;;;;;58.72;56.45;;;;;;;8.81;100.00;101171.50;5063662;28;20032;-74
2022/11/06 00:02:57;;;;;;;60.17;57.90;;;;;;;8.71;100.00;101149.59;5062907;28;20473;-74
2022/11/06 00:08:06;;;;;;;56.50;54.13;;;;;;;8.82;100.00;101159.22;5044615;28;20423;-74
2022/11/06 00:10:32;;;;;;;61.10;58.80;;;;;;;8.75;100.00;101161.50;5061092;28;20028;-75
2022/11/06 00:12:59;;;;;;;71.55;68.47;;;;;;;8.70;100.00;101150.53;5064051;28;20586;-74
2022/11/06 00:15:24;;;;;;;64.65;62.17;;;;;;;8.73;100.00;101154.72;5064042;28;20016;-74
2022/11/06 00:17:50;;;;;;;105.57;101.22;;;;;;;8.77;100.00;101156.13;5061909;28;20135;-74
2022/11/06 00:20:16;;;;;;;92.10;88.47;;;;;;;8.69;100.00;101135.72;5065437;28;20177;-74
2022/11/06 00:22:41;;;;;;;59.63;56.88;;;;;;;8.85;100.00;101154.50;5042046;28;20162;-74
2022/11/06 00:25:08;;;;;;;63.05;60.53;;;;;;;8.81;100.00;101157.53;5057813;28;20078;-74
2022/11/06 00:27:37;;;;;;;60.30;57.65;;;;;;;8.77;100.00;101156.13;5040308;28;20407;-74
2022/11/06 00:30:05;;;;;;;89.40;85.78;;;;;;;8.73;100.00;101158.19;5046870;28;20032;-74
2022/11/06 00:32:30;;;;;;;202.55;193.85;;;;;;;8.62;100.00;101156.47;5043830;28;20492;-74
2022/11/06 00:34:55;;;;;;;138.73;133.43;;;;;;;8.49;100.00;101153.19;5058643;28;20350;-74
2022/11/06 00:37:21;;;;;;;85.57;82.32;;;;;;;8.50;100.00;101154.88;5028642;28;20040;-74
2022/11/06 00:39:46;;;;;;;134.73;129.45;;;;;;;8.27;100.00;101137.50;5042212;28;20123;-74
2022/11/06 00:42:11;;;;;;;186.02;178.85;;;;;;;8.34;100.00;101163.19;5040907;28;20603;-74
2022/11/06 00:44:37;;;;;;;118.03;113.45;;;;;;;8.27;100.00;101154.09;5021674;28;20573;-74
2022/11/06 00:47:03;;;;;;;226.75;217.55;;;;;;;8.27;100.00;101162.00;5042023;28;20033;-75
2022/11/06 00:49:28;;;;;;;207.57;198.82;;;;;;;8.21;100.00;101152.84;5060339;28;20025;-74
2022/11/06 00:51:53;;;;;;;109.72;105.70;;;;;;;8.24;100.00;101159.63;5038816;28;21201;-74
2022/11/06 00:54:19;;;;;;;123.90;119.10;;;;;;;8.19;100.00;101167.09;5058024;28;20531;-74
2022/11/06 00:56:44;;;;;;;158.73;152.73;;;;;;;8.19;100.00;101169.72;5034515;28;20056;-74
2022/11/06 00:59:12;;;;;;;97.22;93.50;;;;;;;8.11;100.00;101156.34;5042528;28;20032;-74
2022/11/06 01:01:40;;;;;;;148.43;142.27;;;;;;;8.17;100.00;101169.00;5062732;28;20031;-75
2022/11/06 01:04:17;;;;;;;100.70;96.40;;;;;;;8.12;100.00;101164.13;5055070;28;20181;-74
2022/11/06 01:06:45;;;;;;;304.20;290.23;;;;;;;8.03;100.00;101147.31;5062141;28;20020;-74
2022/11/06 01:09:14;;;;;;;92.45;88.28;;;;;;;8.10;100.00;101159.94;5055686;28;20028;-74
2022/11/06 01:11:43;;;;;;;111.50;107.15;;;;;;;8.09;100.00;101155.66;5045999;28;20051;-74
2022/11/06 01:14:12;;;;;;;100.22;96.22;;;;;;;8.10;100.00;101163.41;5057874;28;20141;-74
2022/11/06 01:16:38;;;;;;;161.18;153.68;;;;;;;8.11;100.00;101154.56;5063306;28;20538;-74
2022/11/06 01:19:04;;;;;;;109.43;105.22;;;;;;;8.12;100.00;101156.25;5062153;28;20032;-74
2022/11/06 01:21:39;;;;;;;151.68;145.32;;;;;;;8.15;100.00;101155.16;5045203;28;20056;-74
2022/11/06 01:24:07;;;;;;;306.13;292.15;;;;;;;8.15;100.00;101155.97;5061011;28;20033;-74
2022/11/06 01:26:33;;;;;;;91.43;87.88;;;;;;;8.15;100.00;101147.25;5045253;28;21171;-74
2022/11/06 01:28:58;;;;;;;86.40;82.75;;;;;;;8.15;100.00;101155.97;5063804;28;20767;-74
2022/11/06 01:31:27;;;;;;;95.93;92.07;;;;;;;8.15;100.00;101150.72;5044105;28;20036;-74
2022/11/06 01:33:55;;;;;;;121.53;116.70;;;;;;;8.12;100.00;101139.59;5062905;28;20039;-74
2022/11/06 01:36:20;;;;;;;103.72;99.18;;;;;;;8.01;100.00;101122.09;5060687;28;20036;-74
2022/11/06 01:38:48;;;;;;;113.28;108.90;;;;;;;8.01;100.00;101111.56;5046102;28;20032;-75
2022/11/06 01:41:24;;;;;;;79.95;76.70;;;;;;;8.13;100.00;101143.91;5064832;28;20055;-74
2022/11/06 01:43:51;;;;;;;85.45;82.22;;;;;;;8.15;100.00;101134.94;5049502;28;20021;-74
2022/11/06 01:46:18;;;;;;;84.32;80.97;;;;;;;8.09;100.00;101119.66;5065748;28;20476;-74
2022/11/06 01:48:48;;;;;;;86.00;82.60;;;;;;;8.17;100.00;101132.19;5066083;28;20025;-75
2022/11/06 01:51:14;;;;;;;106.57;102.35;;;;;;;8.14;100.00;101138.50;5066139;28;20042;-74
2022/11/06 01:53:40;;;;;;;80.40;77.38;;;;;;;8.16;100.00;101131.34;5046365;28;20525;-74
2022/11/06 01:56:08;;;;;;;123.22;118.30;;;;;;;8.16;100.00;101133.13;5065804;28;20508;-74
2022/11/06 01:58:37;;;;;;;122.30;117.65;;;;;;;7.96;100.00;101098.81;5064063;28;20039;-74
2022/11/06 02:01:03;;;;;;;78.15;74.30;;;;;;;8.14;100.00;101120.09;5049034;28;20484;-74
2022/11/06 02:03:28;;;;;;;73.97;70.45;;;;;;;8.14;100.00;101112.22;5058229;28;20036;-74
2022/11/06 02:05:55;;;;;;;74.82;71.70;;;;;;;8.13;100.00;101118.47;5069437;28;20033;-74
2022/11/06 02:08:22;;;;;;;77.63;74.32;;;;;;;8.07;100.00;101099.72;5073129;28;20032;-73
2022/11/06 02:10:48;;;;;;;99.43;95.63;;;;;;;8.12;100.00;101113.31;5072011;28;20028;-74
2022/11/06 02:13:13;;;;;;;73.70;70.53;;;;;;;8.11;100.00;101107.22;5068892;28;20029;-74
2022/11/06 02:15:46;;;;;;;77.13;73.75;;;;;;;7.92;100.00;101081.63;5071326;28;20025;-73
2022/11/06 02:18:33;;;;;;;70.72;67.63;;;;;;;8.08;100.00;101112.75;5057994;28;20111;-74
2022/11/06 02:21:14;;;;;;;74.38;71.20;;;;;;;7.99;100.00;101100.34;5054724;28;20491;-74
2022/11/06 02:23:48;;;;;;;;;;;;;;;8.08;100.00;101102.25;5054039;28;20117;-74
2022/11/06 02:26:19;;;;;;;47.50;44.85;;;;;;;8.11;100.00;101101.16;5071659;28;20018;-74
2022/11/06 02:28:52;;;;;;;56.47;54.15;;;;;;;8.08;100.00;101104.88;5053749;28;20035;-75
2022/11/06 02:31:25;;;;;;;53.83;51.50;;;;;;;8.14;100.00;101100.88;5052983;28;20031;-75
2022/11/06 02:33:56;;;;;;;60.25;57.65;;;;;;;8.04;100.00;101079.78;5039189;28;20396;-74
2022/11/06 02:36:29;;;;;;;57.80;55.55;;;;;;;8.14;100.00;101096.44;5065855;28;20078;-75
2022/11/06 02:38:59;;;;;;;172.73;165.88;;;;;;;8.11;100.00;101094.09;5047170;28;20038;-75
2022/11/06 02:41:30;;;;;;;111.38;107.10;;;;;;;8.14;100.00;101091.19;5066051;28;20029;-74
2022/11/06 02:43:56;;;;;;;;;;;;;;;8.15;100.00;101092.88;5048050;28;20032;-74
2022/11/06 02:46:36;;;;;;;114.68;109.28;;;;;;;8.00;100.00;101079.22;5064776;28;20272;-74
2022/11/06 02:49:06;;;;;;;49.50;47.30;;;;;;;8.16;100.00;101099.78;5063221;28;20025;-74
2022/11/06 02:51:35;;;;;;;87.13;83.80;;;;;;;8.08;100.00;101094.34;5037661;28;20104;-74
2022/11/06 02:54:04;;;;;;;71.18;68.40;;;;;;;8.09;100.00;101087.28;5063356;28;20021;-74
2022/11/06 02:56:35;;;;;;;66.53;63.92;;;;;;;8.18;100.00;101100.50;5064311;28;20036;-75
2022/11/06 02:59:03;;;;;;;;;;;;;;;8.18;100.00;101103.13;5065901;28;20060;-74
2022/11/06 03:01:44;;;;;;;36.88;35.25;;;;;;;8.17;100.00;101100.66;5048179;28;19915;-74
2022/11/06 03:04:32;;;;;;;52.28;50.20;;;;;;;8.16;100.00;101099.78;5063976;28;20024;-75
2022/11/06 03:07:14;;;;;;;47.97;45.97;;;;;;;8.17;100.00;101111.97;5045954;28;20039;-74
2022/11/06 03:09:41;;;;;;;46.78;44.88;;;;;;;8.19;100.00;101104.81;5062695;28;20358;-74
2022/11/06 03:12:28;;;;;;;61.75;59.25;;;;;;;8.20;100.00;101103.81;5041171;28;20121;-74
2022/11/06 03:14:58;;;;;;;58.08;55.40;;;;;;;8.19;100.00;101094.28;5047521;28;20073;-74
2022/11/06 03:17:38;;;;;;;92.22;88.28;;;;;;;8.21;100.00;101092.38;5064625;28;20044;-74
2022/11/06 03:20:29;;;;;;;81.13;77.03;;;;;;;8.24;100.00;101102.63;5048388;28;20024;-74
2022/11/06 03:23:06;;;;;;;46.90;44.97;;;;;;;8.15;100.00;101079.72;5067967;28;20522;-74
2022/11/06 03:25:53;;;;;;;48.10;46.08;;;;;;;8.31;100.00;101091.59;5045138;28;20039;-74
2022/11/06 03:28:33;;;;;;;278.08;265.27;;;;;;;8.29;100.00;101099.59;5046586;28;20470;-74
2022/11/06 03:31:02;;;;;;;48.78;46.83;;;;;;;8.30;100.00;101101.28;5062348;28;20036;-76
2022/11/06 03:33:39;;;;;;;52.45;50.10;;;;;;;8.31;100.00;101092.41;5047909;28;20553;-74
2022/11/06 03:36:12;;;;;;;42.38;39.63;;;;;;;8.26;100.00;101078.84;5062712;28;20024;-76
2022/11/06 03:38:46;;;;;;;66.47;63.70;;;;;;;8.28;100.00;101089.22;5066208;28;20499;-75
2022/11/06 03:41:38;;;;;;;66.57;63.58;;;;;;;8.33;100.00;101100.19;5065048;28;20081;-73
2022/11/06 03:44:08;;;;;;;78.05;74.72;;;;;;;8.33;100.00;101092.28;5058975;28;20044;-75
2022/11/06 03:46:38;;;;;;;35.70;33.50;;;;;;;8.34;100.00;101096.56;5049581;28;20130;-75
2022/11/06 03:49:09;;;;;;;43.03;40.92;;;;;;;8.33;100.00;101089.66;5068386;28;20032;-75
2022/11/06 03:51:44;;;;;;;66.90;64.15;;;;;;;8.32;100.00;101093.25;5050477;28;20114;-75
2022/11/06 03:54:16;;;;;;;47.95;45.83;;;;;;;8.32;100.00;101087.97;5067439;28;20107;-75
2022/11/06 03:56:56;;;;;;;53.95;51.60;;;;;;;8.32;100.00;101099.34;5053685;28;20123;-76
2022/11/06 03:59:27;;;;;;;36.20;34.75;;;;;;;8.24;100.00;101068.44;5069929;28;20048;-75
2022/11/06 04:01:54;;;;;;;;;;;;;;;8.32;100.00;101088.84;5039279;28;20128;-73
2022/11/06 04:04:29;;;;;;;46.25;44.33;;;;;;;8.32;100.00;101088.84;5067826;28;20474;-74
2022/11/06 04:07:09;;;;;;;38.63;36.83;;;;;;;8.33;100.00;101087.84;5049185;28;20086;-75
2022/11/06 04:15:13;;;;;;;40.30;38.65;;;;;;;8.33;100.00;101084.41;5076021;28;20065;-74
2022/11/06 04:17:40;;;;;;;78.45;74.93;;;;;;;8.30;100.00;101088.13;5075884;28;20028;-74
2022/11/06 04:20:10;;;;;;;57.08;54.70;;;;;;;8.27;100.00;101074.41;5075761;28;20162;-75
2022/11/06 04:22:59;;;;;;;35.92;34.35;;;;;;;8.31;100.00;101094.22;5075915;28;20169;-74
2022/11/06 04:29:07;;;;;;;24.67;23.35;;;;;;;8.29;100.00;101091.72;5071146;28;20088;-75
2022/11/06 04:31:53;;;;;;;36.03;34.28;;;;;;;8.27;100.00;101090.19;5069585;28;20052;-75
2022/11/06 04:34:43;;;;;;;32.80;31.10;;;;;;;8.27;100.00;101090.19;5046322;28;20082;-75
2022/11/06 04:37:20;;;;;;;49.17;46.35;;;;;;;8.29;100.00;101088.25;5063356;28;20100;-76
2022/11/06 04:40:04;;;;;;;34.83;33.33;;;;;;;8.30;100.00;101085.50;5062731;28;20032;-75
2022/11/06 04:42:48;;;;;;;36.47;34.83;;;;;;;8.31;100.00;101092.41;5064129;28;20060;-75
2022/11/06 04:45:20;;;;;;;30.45;28.70;;;;;;;8.23;100.00;101069.41;5065877;28;20081;-76
2022/11/06 04:47:46;;;;;;;32.15;30.42;;;;;;;8.19;100.00;101060.13;5063938;28;20712;-75
2022/11/06 04:50:14;;;;;;;58.92;56.63;;;;;;;8.27;100.00;101079.66;5047249;28;20506;-75
2022/11/06 04:52:40;;;;;;;37.42;35.92;;;;;;;8.28;100.00;101081.34;5064799;28;20035;-76
2022/11/06 04:55:06;;;;;;;32.50;30.63;;;;;;;8.30;100.00;101079.41;5047653;28;20514;-76
2022/11/06 04:57:31;;;;;;;52.35;50.00;;;;;;;8.29;100.00;101088.25;5045841;28;20033;-76
2022/11/06 04:59:57;;;;;;;33.75;32.35;;;;;;;8.12;100.00;101045.81;5061334;28;20123;-76
2022/11/06 05:02:22;;;;;;;32.63;31.17;;;;;;;8.29;100.00;101072.47;5044853;28;20036;-75
2022/11/06 05:04:48;;;;;;;77.18;73.95;;;;;;;8.21;100.00;101068.69;5065089;28;20039;-75
2022/11/06 05:07:14;;;;;;;51.78;49.70;;;;;;;8.30;100.00;101082.03;5046366;28;20112;-76
2022/11/06 05:09:40;;;;;;;42.53;40.83;;;;;;;8.28;100.00;101078.72;5062676;28;21201;-75
2022/11/06 05:12:06;;;;;;;33.33;31.95;;;;;;;8.17;100.00;101043.63;5066013;28;20032;-76
2022/11/06 05:14:32;;;;;;;57.30;53.90;;;;;;;8.27;100.00;101058.63;5065526;28;20557;-76
2022/11/06 05:16:58;;;;;;;35.22;33.58;;;;;;;8.20;100.00;101037.28;5064436;28;20028;-76
2022/11/06 05:19:23;;;;;;;45.45;43.28;;;;;;;8.28;100.00;101052.41;5050135;28;20094;-77
2022/11/06 05:24:32;;;;;;;30.60;28.60;;;;;;;8.27;100.00;101037.59;5067749;28;20048;-76
2022/11/06 05:26:57;;;;;;;55.70;53.15;;;;;;;8.14;100.00;101028.09;5064068;28;20033;-76
2022/11/06 05:29:23;;;;;;;48.78;46.75;;;;;;;8.26;100.00;101052.53;5051565;28;20036;-76
2022/11/06 05:31:48;;;;;;;31.35;29.90;;;;;;;8.27;100.00;101046.31;5033317;28;20137;-75
2022/11/06 05:34:13;;;;;;;55.35;53.15;;;;;;;8.28;100.00;101039.28;5065949;28;20023;-76
2022/11/06 05:36:39;;;;;;;30.65;29.35;;;;;;;8.19;100.00;101028.56;5048225;28;20032;-76
2022/11/06 05:39:04;;;;;;;38.60;37.03;;;;;;;8.18;100.00;101026.06;5066847;28;20036;-75
2022/11/06 05:41:30;;;;;;;27.17;26.10;;;;;;;8.28;100.00;101032.22;5020299;28;20031;-76
2022/11/06 05:43:56;;;;;;;38.03;35.97;;;;;;;8.29;100.00;101036.50;5064365;28;20036;-75
2022/11/06 05:46:21;;;;;;;35.40;33.58;;;;;;;8.21;100.00;101018.75;5072671;28;20158;-75
2022/11/06 05:48:47;;;;;;;36.63;35.20;;;;;;;8.17;100.00;101011.25;5063300;28;20028;-75
2022/11/06 05:51:12;;;;;;;25.95;24.88;;;;;;;8.25;100.00;101027.19;5047033;28;20100;-76
2022/11/06 05:53:38;;;;;;;29.95;28.70;;;;;;;8.30;100.00;101025.03;5018249;28;20034;-75
2022/11/06 05:56:04;;;;;;;28.42;27.00;;;;;;;8.27;100.00;101021.81;5065983;28;20348;-75
2022/11/06 05:58:29;;;;;;;24.75;23.30;;;;;;;8.21;100.00;101007.41;5036084;28;20042;-77
2022/11/06 06:00:56;;;;;;;35.70;34.05;;;;;;;8.26;100.00;101020.16;5072321;28;20032;-75
2022/11/06 06:03:22;;;;;;;28.77;27.42;;;;;;;8.28;100.00;101028.75;5075890;28;20035;-75
2022/11/06 06:05:47;;;;;;;38.15;36.05;;;;;;;8.22;100.00;101002.00;5058954;28;20028;-75
2022/11/06 06:08:13;;;;;;;52.20;50.15;;;;;;;8.28;100.00;101015.59;5041400;28;20114;-76
2022/11/06 06:10:43;;;;;;;30.77;29.60;;;;;;;8.26;100.00;101014.91;5074923;28;20407;-75
2022/11/06 06:13:08;;;;;;;87.53;83.85;;;;;;;8.28;100.00;101024.31;5076482;28;20159;-75
2022/11/06 06:15:34;;;;;;;27.65;26.40;;;;;;;8.18;100.00;101002.38;5074577;28;20219;-74
2022/11/06 06:17:59;;;;;;;26.10;25.05;;;;;;;8.26;100.00;101009.63;5059975;28;20040;-75
2022/11/06 06:20:24;;;;;;;28.50;27.33;;;;;;;8.28;100.00;101007.72;5073766;28;20315;-75
2022/11/06 06:22:54;;;;;;;29.85;28.45;;;;;;;8.27;100.00;101012.13;5072120;28;20058;-75
2022/11/06 06:25:19;;;;;;;31.48;30.20;;;;;;;8.27;100.00;101016.56;5077626;28;20040;-75
2022/11/06 06:27:45;;;;;;;28.48;27.38;;;;;;;8.28;100.00;101029.56;5076298;28;20024;-75
2022/11/06 06:30:10;;;;;;;35.47;33.90;;;;;;;8.22;100.00;101016.94;5073111;28;20060;-75
2022/11/06 06:32:36;;;;;;;55.72;53.10;;;;;;;8.29;100.00;101022.50;5058897;28;20056;-76
2022/11/06 06:35:02;;;;;;;20.85;19.90;;;;;;;8.31;100.00;101029.31;5072644;28;20027;-75
2022/11/06 06:37:27;;;;;;;36.85;35.30;;;;;;;8.21;100.00;101021.38;5059255;28;20088;-75
2022/11/06 06:39:52;;;;;;;37.28;35.63;;;;;;;8.21;100.00;101021.38;5055699;28;20043;-75
2022/11/06 06:42:18;;;;;;;66.20;63.65;;;;;;;8.30;100.00;101037.34;5057142;28;20391;-75
2022/11/06 06:44:43;;;;;;;23.38;22.40;;;;;;;8.22;100.00;101016.94;5057905;28;20115;-75
2022/11/06 06:47:08;;;;;;;22.40;21.45;;;;;;;8.29;100.00;101031.22;5058210;28;20036;-75
2022/11/06 06:49:34;;;;;;;22.40;21.40;;;;;;;8.26;100.00;101022.78;5052208;28;20135;-75
2022/11/06 06:52:00;;;;;;;22.50;21.52;;;;;;;8.36;100.00;101031.53;5057767;28;20031;-75
2022/11/06 06:54:25;;;;;;;21.17;19.98;;;;;;;8.31;100.00;101033.72;5059203;28;20074;-76
2022/11/06 06:56:52;;;;;;;22.85;21.75;;;;;;;8.35;100.00;101035.16;5055853;28;20043;-75
2022/11/06 06:59:17;;;;;;;34.47;32.38;;;;;;;8.36;100.00;101036.78;5057401;28;20037;-75
2022/11/06 07:01:43;;;;;;;43.00;41.05;;;;;;;8.21;100.00;101024.00;5056749;28;20028;-76
2022/11/06 07:04:09;;;;;;;23.25;22.17;;;;;;;8.35;100.00;101035.16;5025148;28;20063;-75
2022/11/06 07:06:35;;;;;;;20.15;19.00;;;;;;;8.38;100.00;101041.00;5076070;28;20496;-75
2022/11/06 07:09:00;;;;;;;23.63;22.55;;;;;;;8.36;100.00;101034.16;5072388;28;20035;-75
2022/11/06 07:11:25;;;;;;;35.47;33.72;;;;;;;8.38;100.00;101045.38;5075138;28;20103;-76
2022/11/06 07:13:51;;;;;;;19.83;18.83;;;;;;;8.29;100.00;101020.72;5058834;28;20055;-76
2022/11/06 07:16:17;;;;;;;19.05;17.83;;;;;;;8.33;100.00;101022.13;5040503;28;20388;-75
2022/11/06 07:18:42;;;;;;;20.25;19.35;;;;;;;8.48;100.00;101038.41;5010483;28;20036;-76
2022/11/06 07:21:10;;;;;;;20.33;19.38;;;;;;;8.47;100.00;101042.03;5074647;28;20036;-75
2022/11/06 07:23:36;;;;;;;18.05;17.25;;;;;;;8.38;100.00;101013.84;5070401;28;20131;-75
2022/11/06 07:26:03;;;;;;;26.35;25.25;;;;;;;8.53;100.00;101030.94;5069646;28;20119;-76
2022/11/06 07:28:29;;;;;;;20.25;19.45;;;;;;;8.54;100.00;101040.53;5051884;28;20020;-75
2022/11/06 07:31:02;;;;;;;19.88;18.90;;;;;;;8.54;100.00;101029.19;5067008;28;20083;-75
2022/11/06 07:33:28;;;;;;;19.50;18.17;;;;;;;8.56;100.00;101027.25;5066507;28;20028;-75
2022/11/06 07:35:54;;;;;;;20.10;19.25;;;;;;;8.62;100.00;101024.06;5046575;28;20547;-75
2022/11/06 07:38:19;;;;;;;29.52;28.42;;;;;;;8.57;100.00;101028.91;5046831;28;20499;-75
2022/11/06 07:40:45;;;;;;;21.17;19.98;;;;;;;8.64;100.00;101038.78;5072087;28;20082;-75
2022/11/06 07:43:10;;;;;;;20.67;19.75;;;;;;;8.70;100.00;101028.69;5067524;28;20029;-76
2022/11/06 07:45:37;;;;;;;19.35;18.60;;;;;;;8.65;100.00;101016.75;5050093;28;20028;-75
2022/11/06 07:48:04;;;;;;;22.52;21.42;;;;;;;8.66;100.00;101007.06;5052229;28;20122;-75
2022/11/06 07:50:30;;;;;;;18.20;17.38;;;;;;;8.83;100.00;101024.00;5050622;28;20051;-75
2022/11/06 07:52:56;;;;;;;16.88;15.73;;;;;;;8.78;100.00;100994.63;5066771;28;20387;-75
2022/11/06 07:55:22;;;;;;;24.60;23.38;;;;;;;8.96;100.00;101021.97;5051060;28;20031;-75
2022/11/06 07:57:47;;;;;;;21.02;19.58;;;;;;;8.89;100.00;100989.25;5050909;28;20365;-75
2022/11/06 08:00:13;;;;;;;16.92;15.93;;;;;;;9.07;100.00;101010.47;5068390;28;20054;-76
2022/11/06 08:02:40;;;;;;;16.00;14.93;;;;;;;9.13;100.00;101014.38;5067180;28;20036;-75
2022/11/06 08:05:06;;;;;;;21.33;20.33;;;;;;;9.10;100.00;101009.38;5070529;28;20103;-75
2022/11/06 08:07:31;;;;;;;15.88;15.18;;;;;;;9.04;100.00;100994.97;5066840;28;20043;-76
2022/11/06 08:09:56;;;;;;;20.90;19.95;;;;;;;9.09;100.00;101019.06;5033426;28;20496;-76
2022/11/06 08:12:22;;;;;;;17.45;16.48;;;;;;;8.96;100.00;100998.28;5068030;28;20063;-75
2022/11/06 08:14:47;;;;;;;18.40;17.55;;;;;;;8.94;100.00;101016.00;5067437;28;20041;-76
2022/11/06 08:17:13;;;;;;;23.45;22.40;;;;;;;8.73;100.00;101002.09;5033786;28;20032;-75
2022/11/06 08:19:38;;;;;;;25.98;24.67;;;;;;;8.82;100.00;101015.28;5068955;28;20550;-76
2022/11/06 08:22:04;;;;;;;29.58;28.20;;;;;;;8.77;100.00;101014.00;5071587;28;20100;-75
2022/11/06 08:24:29;;;;;;;26.50;24.70;;;;;;;8.78;100.00;101013.06;5071434;28;20028;-75
2022/11/06 08:26:55;;;;;;;31.90;30.67;;;;;;;8.77;100.00;101009.56;5071996;28;20573;-75
2022/11/06 08:29:21;;;;;;;35.40;34.00;;;;;;;8.77;100.00;101006.94;5056483;28;20020;-75
2022/11/06 08:31:46;;;;;;;38.60;37.00;;;;;;;8.74;100.00;101012.47;5051723;28;20036;-75
2022/11/06 08:34:11;;;;;;;33.75;32.45;;;;;;;8.73;100.00;101002.09;5055569;28;20047;-75
2022/11/06 08:36:41;;;;;;;36.47;35.15;;;;;;;8.60;100.00;100992.66;5074753;28;20110;-76
2022/11/06 08:39:07;;;;;;;73.07;70.18;;;;;;;8.67;100.00;101007.88;5053712;28;20027;-75
2022/11/06 08:41:33;;;;;;;37.97;36.47;;;;;;;8.55;100.00;100996.63;5073376;28;20070;-75
2022/11/06 08:43:58;;;;;;;47.75;46.00;;;;;;;8.63;100.00;101013.41;5050707;28;20028;-75
2022/11/06 08:46:24;;;;;;;59.78;57.10;;;;;;;8.63;100.00;101008.16;5054266;28;20122;-75
2022/11/06 08:48:49;;;;;;;49.58;47.53;;;;;;;8.47;100.00;100980.69;5070394;28;20488;-75
2022/11/06 08:51:14;;;;;;;54.45;52.20;;;;;;;8.69;100.00;101008.56;5054741;28;20052;-75
2022/11/06 08:53:40;;;;;;;52.92;50.67;;;;;;;8.77;100.00;101004.31;5073554;28;20395;-75
2022/11/06 08:56:06;;;;;;;51.72;49.70;;;;;;;8.77;100.00;100991.16;5073365;28;20040;-75
2022/11/06 08:58:31;;;;;;;57.55;55.00;;;;;;;8.89;100.00;100991.88;5067549;28;20040;-75
2022/11/06 09:00:57;;;;;;;47.45;45.35;;;;;;;9.06;100.00;101006.19;5070494;28;23074;-75
2022/11/06 09:03:22;;;;;;;50.85;48.90;;;;;;;8.99;100.00;100990.13;5055324;28;20089;-75
2022/11/06 09:05:47;;;;;;;40.58;39.00;;;;;;;9.01;100.00;101000.50;5068459;28;20040;-75
2022/11/06 09:08:13;;;;;;;35.38;34.05;;;;;;;8.96;100.00;100998.28;5068297;28;20040;-75
2022/11/06 09:10:41;;;;;;;32.72;31.45;;;;;;;9.04;100.00;101001.06;5069915;28;20028;-75
2022/11/06 09:13:06;;;;;;;27.20;26.10;;;;;;;8.98;100.00;100996.34;5073311;28;20498;-75
2022/11/06 09:15:32;;;;;;;28.63;27.40;;;;;;;8.98;100.00;100984.97;5074868;28;20024;-76
2022/11/06 09:17:57;;;;;;;26.80;25.48;;;;;;;9.03;100.00;100988.03;5074358;28;20028;-76
2022/11/06 09:20:24;;;;;;;29.10;27.95;;;;;;;9.00;100.00;100970.69;5055938;28;20020;-76
2022/11/06 09:22:49;;;;;;;28.13;26.70;;;;;;;9.01;100.00;100958.38;5070366;28;20484;-75
2022/11/06 09:25:15;;;;;;;21.33;20.45;;;;;;;9.03;100.00;100959.88;5073260;28;20017;-75
2022/11/06 09:27:46;;;;;;;19.50;18.40;;;;;;;9.18;100.00;100951.59;5074831;28;20390;-75
2022/11/06 09:30:14;;;;;;;21.50;20.30;;;;;;;9.18;100.00;100954.22;5043450;28;20026;-76
2022/11/06 09:32:45;;;;;;;17.30;16.30;;;;;;;9.24;100.00;100932.63;5069933;28;20052;-75
2022/11/06 09:35:10;;;;;;;21.50;20.55;;;;;;;9.26;100.00;100941.22;5072816;28;20040;-75
2022/11/06 09:37:36;;;;;;;16.30;15.52;;;;;;;9.38;100.00;100942.72;5073488;28;20023;-75
2022/11/06 09:40:03;;;;;;;15.25;14.68;;;;;;;9.56;100.00;100927.03;5034880;28;20145;-75
2022/11/06 09:42:37;;;;;;;13.13;12.23;;;;;;;9.60;100.00;100930.19;5071668;28;20029;-76
2022/11/06 09:45:25;;;;;;;9.35;8.57;;;;;;;9.54;100.00;100928.13;5050892;28;20043;-76
2022/11/06 09:47:59;;;;;;;5.82;5.53;;;;;;;9.51;100.00;100917.88;5070743;28;20031;-75
2022/11/06 09:50:31;;;;;;;5.93;5.63;;;;;;;9.53;100.00;100915.94;5051546;28;20111;-75
2022/11/06 09:53:31;;;;;;;11.02;6.35;;;;;;;9.49;100.00;100902.22;5071816;28;20039;-76
2022/11/06 09:56:00;;;;;;;5.13;4.93;;;;;;;9.49;100.00;100904.84;5067289;28;20491;-75
2022/11/06 09:58:34;;;;;;;9.40;9.00;;;;;;;9.52;100.00;100909.03;5070279;28;20028;-75
2022/11/06 10:01:10;;;;;;;8.18;7.82;;;;;;;9.46;100.00;100905.97;5070487;28;20293;-75
2022/11/06 10:03:42;;;;;;;7.80;7.40;;;;;;;9.51;100.00;100912.63;5077766;28;20058;-75
2022/11/06 10:06:07;;;;;;;8.55;8.13;;;;;;;9.50;100.00;100893.34;5076655;28;20079;-75
2022/11/06 10:08:33;;;;;;;5.75;5.47;;;;;;;9.60;100.00;100896.81;5060756;28;20024;-76
2022/11/06 10:11:15;;;;;;;7.53;7.13;;;;;;;9.58;100.00;100890.00;5073089;28;20032;-76
2022/11/06 10:13:54;;;;;;;6.60;6.30;;;;;;;9.52;100.00;100883.50;5058675;28;20033;-75
2022/11/06 10:16:38;;;;;;;6.40;5.90;;;;;;;9.59;100.00;100900.41;5043751;28;20021;-75
2022/11/06 10:19:07;;;;;;;7.55;6.82;;;;;;;9.73;100.00;100901.75;5055134;28;20082;-76
2022/11/06 10:21:56;;;;;;;11.02;10.00;;;;;;;9.65;100.00;100878.75;5074183;28;20048;-76
2022/11/06 10:24:29;;;;;;;6.68;6.18;;;;;;;9.71;100.00;100893.13;5076635;28;20123;-76
2022/11/06 10:26:56;;;;;;;10.15;8.60;;;;;;;9.72;100.00;100889.53;5055862;28;20616;-76
2022/11/06 10:29:37;;;;;;;10.27;9.73;;;;;;;9.81;100.00;100903.66;5056974;28;20547;-75
2022/11/06 10:32:09;;;;;;;11.15;10.50;;;;;;;9.79;100.00;100895.06;5057802;28;20112;-75
2022/11/06 10:34:45;;;;;;;11.57;11.07;;;;;;;9.72;100.00;100889.53;5075798;28;20038;-76
2022/11/06 10:37:19;;;;;;;15.68;15.05;;;;;;;9.57;100.00;100864.63;5074801;28;20491;-76
2022/11/06 10:39:45;;;;;;;12.20;11.40;;;;;;;9.81;100.00;100888.69;5075883;28;20020;-76
2022/11/06 10:42:18;;;;;;;17.48;16.50;;;;;;;9.86;100.00;100891.72;5075058;28;20028;-76
2022/11/06 10:45:07;;;;;;;14.60;14.05;;;;;;;9.93;100.00;100891.13;5077151;28;20032;-76
2022/11/06 10:47:39;;;;;;;8.85;8.40;;;;;;;10.00;100.00;100876.41;5074143;28;20056;-76
2022/11/06 10:50:14;;;;;;;10.65;10.15;;;;;;;10.12;100.00;100880.50;5076088;28;20092;-76
2022/11/06 10:52:46;;;;;;;10.35;9.95;;;;;;;10.16;100.00;100871.31;5042918;28;20098;-77
2022/11/06 10:55:45;;;;;;;6.72;5.82;;;;;;;10.21;100.00;100865.59;5058673;28;20074;-76
2022/11/06 10:58:23;;;;;;;8.60;6.93;;;;;;;10.19;100.00;100855.22;5055489;28;20032;-76
2022/11/06 11:00:50;;;;;;;5.97;5.57;;;;;;;10.20;100.00;100838.41;5056572;28;20484;-76
2022/11/06 11:03:22;;;;;;;14.23;13.23;;;;;;;10.49;100.00;100855.88;5057667;28;20024;-76
2022/11/06 11:05:47;;;;;;;10.63;10.15;;;;;;;10.54;100.00;100848.38;5075742;28;20024;-76
2022/11/06 11:08:34;;;;;;;6.97;6.57;;;;;;;10.63;100.00;100847.47;5042119;28;20078;-76
2022/11/06 11:11:14;;;;;;;5.63;5.10;;;;;;;10.65;100.00;100840.22;5074133;28;20082;-76
2022/11/06 11:13:40;;;;;;;12.93;12.35;;;;;;;10.66;100.00;100839.25;5073252;28;20390;-76
2022/11/06 11:16:17;;;;;;;5.18;4.53;;;;;;;10.72;100.00;100821.97;5074014;28;20028;-76
2022/11/06 11:18:43;;;;;;;4.13;3.63;;;;;;;10.80;100.00;100829.13;5074462;28;20545;-76
2022/11/06 11:21:23;;;;;;;4.53;4.13;;;;;;;10.85;100.00;100818.97;5056994;28;20021;-76
2022/11/06 11:24:09;;;;;;;4.10;3.90;;;;;;;10.95;100.00;100824.97;5046797;28;20059;-76
2022/11/06 11:26:41;;;;;;;5.03;3.95;;;;;;;10.80;100.00;100795.66;5070313;28;20429;-76
2022/11/06 11:29:15;;;;;;;4.18;3.83;;;;;;;10.84;100.00;100796.16;5068575;28;20008;-77
2022/11/06 11:31:45;;;;;;;3.55;3.35;;;;;;;10.91;100.00;100794.59;5073267;28;20103;-76
2022/11/06 11:34:17;;;;;;;10.40;7.55;;;;;;;10.93;100.00;100795.28;5056048;28;20162;-76